Time;durP1;ratioP1;P1;durP2;ratioP2;P2;SDS_P1;SDS_P2;PMS_P1;PMS_P2;Temp;Humidity;BMP_temperature;BMP_pressure;BME280_temperature;BME280_humidity;BME280_pressure;Samples;Min_cycle;Max_cycle;Signal;HPM_P1;HPM_P2
2022/03/11 00:01:01;;;;;;;14.55;7.50;;;;;;;1.22;62.50;101485.72;5049367;28;20039;-72
2022/03/11 00:03:26;;;;;;;15.27;7.28;;;;;;;1.25;62.31;101475.00;5067221;28;20086;-72
2022/03/11 00:05:52;;;;;;;15.37;6.83;;;;;;;1.26;61.67;101460.94;5049401;28;20052;-72
2022/03/11 00:08:18;;;;;;;15.32;7.20;;;;;;;1.33;61.33;101455.31;5049463;28;20094;-72
2022/03/11 00:10:43;;;;;;;17.17;7.40;;;;;;;1.25;61.55;101419.75;5032299;28;20037;-73
2022/03/11 00:13:08;;;;;;;13.70;7.03;;;;;;;1.18;60.92;101415.78;5049103;28;20474;-73
2022/03/11 00:15:34;;;;;;;14.45;6.97;;;;;;;1.30;60.51;101402.88;5065478;28;20032;-73
2022/03/11 00:18:00;;;;;;;15.32;6.38;;;;;;;1.12;60.62;101371.41;5066927;28;20570;-72
2022/03/11 00:20:25;;;;;;;16.63;7.33;;;;;;;1.15;60.30;101376.50;5048818;28;20033;-73
2022/03/11 00:22:52;;;;;;;16.55;7.63;;;;;;;1.21;60.00;101360.34;5066639;28;20554;-73
2022/03/11 00:25:19;;;;;;;12.60;7.70;;;;;;;1.22;59.51;101335.75;5066134;28;20098;-73
2022/03/11 00:27:45;;;;;;;14.48;7.00;;;;;;;1.15;59.43;101325.69;5032080;28;20119;-73
2022/03/11 00:30:11;;;;;;;14.13;7.10;;;;;;;1.10;59.63;101335.59;5031727;28;20130;-72
2022/03/11 00:32:38;;;;;;;14.38;7.20;;;;;;;1.11;59.33;101330.28;5066218;28;20108;-73
2022/03/11 00:35:07;;;;;;;18.80;6.72;;;;;;;1.09;59.14;101310.25;5065160;28;20024;-73
2022/03/11 00:37:32;;;;;;;12.23;6.22;;;;;;;1.04;59.30;101310.50;5066329;28;20028;-73
2022/03/11 00:39:58;;;;;;;15.68;7.65;;;;;;;1.00;59.42;101328.22;5065579;28;20466;-74
2022/03/11 00:42:24;;;;;;;21.97;7.63;;;;;;;0.99;59.43;101317.81;5066098;28;20035;-73
2022/03/11 00:44:49;;;;;;;13.15;6.93;;;;;;;0.92;59.28;101316.47;5064911;28;20086;-73
2022/03/11 00:47:14;;;;;;;10.33;5.63;;;;;;;0.92;59.39;101333.09;5066078;28;20036;-73
2022/03/11 00:49:40;;;;;;;16.23;6.60;;;;;;;0.87;59.34;101321.13;5048102;28;20073;-73
2022/03/11 00:52:05;;;;;;;16.45;6.82;;;;;;;0.87;59.27;101322.00;5031528;28;20028;-73
2022/03/11 00:54:31;;;;;;;16.30;7.10;;;;;;;0.87;59.13;101305.34;5065711;28;20473;-73
2022/03/11 00:56:56;;;;;;;14.87;7.13;;;;;;;0.86;59.18;101308.91;5048089;28;20032;-73
2022/03/11 00:59:22;;;;;;;10.32;5.88;;;;;;;0.77;59.05;101287.50;5064430;28;20128;-73
2022/03/11 01:01:47;;;;;;;12.93;6.30;;;;;;;0.71;59.27;101303.59;5048185;28;20036;-73
2022/03/11 01:04:13;;;;;;;15.43;6.72;;;;;;;0.72;59.32;101320.19;5047686;28;20056;-73
2022/03/11 01:06:38;;;;;;;12.67;6.53;;;;;;;0.69;59.35;101325.63;5065062;28;20067;-74
2022/03/11 01:09:04;;;;;;;15.73;7.43;;;;;;;0.69;59.56;101328.25;5065134;28;20282;-73
2022/03/11 01:11:29;;;;;;;14.50;7.85;;;;;;;0.66;59.62;101346.84;5048361;28;20034;-73
2022/03/11 01:13:56;;;;;;;14.40;7.05;;;;;;;0.63;59.84;101367.09;5047530;28;20516;-73
2022/03/11 01:16:23;;;;;;;14.18;6.70;;;;;;;0.53;60.04;101352.75;5065603;28;20060;-73
2022/03/11 01:18:49;;;;;;;17.30;7.07;;;;;;;0.56;60.09;101364.88;5030555;28;20477;-73
2022/03/11 01:21:14;;;;;;;16.02;6.68;;;;;;;0.53;60.16;101365.03;5047728;28;20035;-73
2022/03/11 01:23:40;;;;;;;18.77;7.40;;;;;;;0.45;60.34;101373.34;5065344;28;20488;-73
2022/03/11 01:26:05;;;;;;;15.47;7.03;;;;;;;0.41;60.48;101377.88;5047619;28;20773;-73
2022/03/11 01:28:31;;;;;;;12.18;6.35;;;;;;;0.38;60.56;101378.06;5063993;28;20040;-74
2022/03/11 01:30:56;;;;;;;15.75;6.97;;;;;;;0.38;60.41;101377.22;5065294;28;20047;-74
2022/03/11 01:33:24;;;;;;;12.70;6.82;;;;;;;0.40;60.37;101373.59;5065326;28;20020;-74
2022/03/11 01:35:49;;;;;;;15.40;7.83;;;;;;;0.40;60.50;101384.09;5046853;28;20058;-72
2022/03/11 01:38:15;;;;;;;16.67;6.22;;;;;;;0.34;60.78;101387.03;5065507;28;20294;-73
2022/03/11 01:40:40;;;;;;;18.38;6.93;;;;;;;0.28;61.03;101397.88;5030845;28;20035;-73
2022/03/11 01:43:13;;;;;;;15.03;7.40;;;;;;;0.21;61.13;101399.09;5065365;28;20497;-72
2022/03/11 01:45:38;;;;;;;20.63;6.93;;;;;;;0.19;61.53;101419.38;5030512;28;20478;-74
2022/03/11 01:48:04;;;;;;;16.87;7.73;;;;;;;0.11;61.56;101413.66;5030974;28;20038;-72
2022/03/11 01:50:30;;;;;;;15.90;7.15;;;;;;;0.11;61.64;101421.53;5064898;28;20374;-73
2022/03/11 01:52:56;;;;;;;16.00;6.82;;;;;;;0.10;61.60;101414.59;5047106;28;20054;-72
2022/03/11 01:55:21;;;;;;;13.80;7.50;;;;;;;0.11;61.75;101437.28;5046903;28;20036;-73
2022/03/11 01:57:47;;;;;;;16.20;6.93;;;;;;;0.06;61.58;101421.75;5047564;28;20035;-74
2022/03/11 02:00:14;;;;;;;21.08;7.93;;;;;;;0.09;61.77;101418.13;5047039;28;20108;-72
2022/03/11 02:02:41;;;;;;;16.63;7.82;;;;;;;0.08;61.65;101421.69;5047245;28;20255;-72
2022/03/11 02:05:07;;;;;;;15.83;6.73;;;;;;;0.08;61.98;101440.06;5044133;28;20386;-73
2022/03/11 02:07:32;;;;;;;14.63;7.60;;;;;;;0.00;62.20;101435.22;5049568;28;20397;-73
2022/03/11 02:09:58;;;;;;;17.63;7.72;;;;;;;-0.07;62.29;101426.78;5084744;28;20032;-74
2022/03/11 02:12:36;;;;;;;14.83;7.07;;;;;;;-0.04;62.16;101445.00;5085251;28;20498;-73
2022/03/11 02:15:06;;;;;;;18.02;8.32;;;;;;;-0.11;62.35;101443.63;5050055;28;20659;-73
2022/03/11 02:17:31;;;;;;;15.65;7.07;;;;;;;-0.16;62.75;101469.25;5067879;28;20036;-73
2022/03/11 02:19:57;;;;;;;14.70;6.85;;;;;;;-0.17;62.42;101450.94;5070750;28;20055;-73
2022/03/11 02:22:24;;;;;;;15.93;6.73;;;;;;;-0.20;62.51;101454.56;5071183;28;20028;-73
2022/03/11 02:24:53;;;;;;;15.95;7.63;;;;;;;-0.20;62.86;101465.06;5070844;28;20290;-73
2022/03/11 02:27:19;;;;;;;15.80;7.50;;;;;;;-0.27;62.85;101450.56;5087525;28;20028;-72
2022/03/11 02:29:45;;;;;;;20.08;7.43;;;;;;;-0.23;63.11;101494.94;5088876;28;20430;-73
2022/03/11 02:32:10;;;;;;;17.73;8.10;;;;;;;-0.26;62.74;101468.84;5088562;28;20035;-73
2022/03/11 02:34:40;;;;;;;16.58;8.50;;;;;;;-0.17;62.40;101454.41;5070672;28;20036;-73
2022/03/11 02:37:06;;;;;;;15.75;6.90;;;;;;;-0.25;62.59;101432.97;5070467;28;20047;-72
2022/03/11 02:39:31;;;;;;;18.83;8.30;;;;;;;-0.30;62.58;101437.59;5088724;28;20032;-73
2022/03/11 02:41:58;;;;;;;15.50;7.70;;;;;;;-0.30;62.47;101427.94;5053672;28;20126;-73
2022/03/11 02:44:24;;;;;;;17.30;7.93;;;;;;;-0.32;62.55;101431.56;5070234;28;20298;-73
2022/03/11 02:46:50;;;;;;;18.20;8.23;;;;;;;-0.34;62.57;101423.75;5088812;28;20024;-73
2022/03/11 02:49:16;;;;;;;16.20;7.20;;;;;;;-0.33;62.38;101440.34;5070389;28;20040;-73
2022/03/11 02:51:41;;;;;;;23.58;8.35;;;;;;;-0.31;62.52;101433.25;5053678;28;20040;-73
2022/03/11 02:54:07;;;;;;;15.90;7.07;;;;;;;-0.39;62.73;101422.31;5070401;28;20016;-73
2022/03/11 02:56:32;;;;;;;22.03;9.10;;;;;;;-0.44;62.59;101405.00;5088154;28;20457;-73
2022/03/11 02:58:57;;;;;;;18.50;7.88;;;;;;;-0.38;62.40;101416.13;5088349;28;20285;-73
2022/03/11 03:01:23;;;;;;;22.02;6.93;;;;;;;-0.37;62.46;101421.28;5088356;28;20032;-73
2022/03/11 03:03:48;;;;;;;17.75;7.75;;;;;;;-0.37;62.10;101402.09;5088492;28;20047;-73
2022/03/11 03:06:14;;;;;;;16.05;6.85;;;;;;;-0.43;62.09;101380.44;5070260;28;20036;-74
2022/03/11 03:08:39;;;;;;;17.27;7.32;;;;;;;-0.39;62.00;101386.41;5070186;28;20532;-74
2022/03/11 03:11:05;;;;;;;19.60;7.90;;;;;;;-0.51;62.01;101361.63;5088584;28;20083;-74
2022/03/11 03:13:30;;;;;;;18.65;7.93;;;;;;;-0.44;61.95;101368.28;5087670;28;20096;-74
2022/03/11 03:15:56;;;;;;;15.07;7.47;;;;;;;-0.41;61.51;101361.19;5070182;28;20107;-74
2022/03/11 03:18:21;;;;;;;19.33;8.00;;;;;;;-0.46;61.80;101345.66;5088053;28;20357;-73
2022/03/11 03:20:47;;;;;;;15.27;6.95;;;;;;;-0.42;61.62;101355.09;5053005;28;20300;-73
2022/03/11 03:23:12;;;;;;;17.57;7.50;;;;;;;-0.39;61.42;101359.34;5052824;28;20020;-73
2022/03/11 03:25:38;;;;;;;19.52;7.88;;;;;;;-0.45;61.25;101331.59;5087326;28;20074;-72
2022/03/11 03:28:05;;;;;;;17.00;8.52;;;;;;;-0.54;61.52;101332.06;5068969;28;20047;-73
2022/03/11 03:30:31;;;;;;;21.10;7.43;;;;;;;-0.56;61.71;101334.78;5086678;28;20035;-73
2022/03/11 03:32:56;;;;;;;16.30;6.95;;;;;;;-0.55;61.61;101349.59;5087389;28;20036;-72
2022/03/11 03:35:22;;;;;;;17.75;7.47;;;;;;;-0.60;61.90;101351.59;5087565;28;20050;-72
2022/03/11 03:37:47;;;;;;;16.45;7.60;;;;;;;-0.59;62.02;101369.03;5069233;28;20497;-73
2022/03/11 03:40:13;;;;;;;17.55;8.13;;;;;;;-0.56;62.09;101389.88;5087543;28;20398;-73
2022/03/11 03:42:38;;;;;;;18.98;7.65;;;;;;;-0.60;62.36;101390.94;5052493;28;20043;-73
2022/03/11 03:45:06;;;;;;;18.65;7.15;;;;;;;-0.68;62.47;101401.81;5069199;28;20560;-73
2022/03/11 03:47:31;;;;;;;19.92;8.20;;;;;;;-0.71;62.86;101417.66;5087648;28;20453;-73
2022/03/11 03:49:57;;;;;;;17.55;9.07;;;;;;;-0.71;62.90;101406.34;5087393;28;20402;-73
2022/03/11 03:52:22;;;;;;;19.70;7.40;;;;;;;-0.77;63.03;101423.22;5069432;28;20491;-72
2022/03/11 03:54:47;;;;;;;25.45;8.65;;;;;;;-0.79;63.35;101439.97;5086872;28;20091;-73
2022/03/11 03:57:13;;;;;;;13.67;6.70;;;;;;;-0.80;63.70;101460.06;5069245;28;20780;-73
2022/03/11 03:59:39;;;;;;;21.15;7.93;;;;;;;-0.88;63.73;101472.69;5068819;28;20031;-73
2022/03/11 04:02:05;;;;;;;17.33;8.05;;;;;;;-0.85;63.82;101470.75;5051793;28;20044;-73
2022/03/11 04:04:30;;;;;;;16.77;7.88;;;;;;;-0.80;63.81;101480.19;5086630;28;20035;-73
2022/03/11 04:06:55;;;;;;;16.80;8.40;;;;;;;-0.91;63.80;101464.97;5087535;28;20056;-72
2022/03/11 04:09:21;;;;;;;16.67;8.00;;;;;;;-0.93;63.65;101459.81;5068871;28;20286;-73
2022/03/11 04:11:46;;;;;;;19.98;7.50;;;;;;;-0.93;63.90;101451.09;5069486;28;20277;-73
2022/03/11 04:14:12;;;;;;;15.10;7.03;;;;;;;-0.98;63.79;101443.44;5052807;28;20036;-72
2022/03/11 04:16:37;;;;;;;16.85;7.35;;;;;;;-0.98;63.91;101443.44;5069520;28;20488;-74
2022/03/11 04:19:03;;;;;;;17.83;9.15;;;;;;;-1.06;64.13;101458.66;5069158;28;20097;-73
2022/03/11 04:21:28;;;;;;;16.33;8.90;;;;;;;-1.03;64.39;101469.03;5087099;28;20287;-73
2022/03/11 04:23:54;;;;;;;17.00;7.00;;;;;;;-1.03;64.55;101478.63;5068128;28;20097;-73
2022/03/11 04:26:19;;;;;;;16.45;7.40;;;;;;;-1.07;64.63;101491.03;5086744;28;20349;-73
2022/03/11 04:28:45;;;;;;;16.02;7.53;;;;;;;-1.02;64.54;101483.81;5068494;28;20048;-73
2022/03/11 04:31:12;;;;;;;18.48;7.57;;;;;;;-1.04;64.54;101477.78;5052250;28;20024;-73
2022/03/11 04:33:39;;;;;;;18.67;7.38;;;;;;;-1.02;64.75;101486.44;5068439;28;20039;-73
2022/03/11 04:36:06;;;;;;;15.18;7.57;;;;;;;-1.09;64.70;101485.00;5086110;28;20028;-73
2022/03/11 04:38:32;;;;;;;18.75;7.60;;;;;;;-1.08;64.85;101490.19;5068116;28;20665;-73
2022/03/11 04:40:57;;;;;;;21.67;8.50;;;;;;;-1.07;64.85;101496.28;5051354;28;20035;-73
2022/03/11 04:43:23;;;;;;;15.05;7.63;;;;;;;-1.14;65.01;101484.38;5068413;28;20036;-73
2022/03/11 04:45:49;;;;;;;15.75;7.68;;;;;;;-1.07;64.89;101496.28;5086368;28;20497;-73
2022/03/11 04:48:14;;;;;;;18.40;7.97;;;;;;;-1.04;64.79;101493.50;5068139;28;20028;-73
2022/03/11 04:50:40;;;;;;;25.10;7.60;;;;;;;-1.12;64.87;101479.91;5086271;28;20438;-73
2022/03/11 04:53:05;;;;;;;16.42;8.13;;;;;;;-1.14;64.78;101472.13;5068328;28;20031;-73
2022/03/11 04:55:31;;;;;;;14.53;7.93;;;;;;;-1.10;64.70;101491.16;5067959;28;20081;-73
2022/03/11 04:57:57;;;;;;;16.63;7.35;;;;;;;-1.11;64.83;101492.94;5068364;28;21021;-73
2022/03/11 05:00:23;;;;;;;19.60;8.20;;;;;;;-1.12;64.80;101478.16;5067959;28;20034;-73
2022/03/11 05:02:48;;;;;;;13.35;7.05;;;;;;;-1.14;64.97;101484.38;5086077;28;20465;-73
2022/03/11 05:05:15;;;;;;;14.10;7.07;;;;;;;-1.20;64.86;101476.78;5050895;28;20047;-73
2022/03/11 05:07:41;;;;;;;18.52;7.95;;;;;;;-1.18;64.89;101480.19;5086270;28;20042;-73
2022/03/11 05:10:09;;;;;;;17.48;8.00;;;;;;;-1.18;64.58;101485.44;5067634;28;20036;-73
2022/03/11 05:12:35;;;;;;;18.25;8.23;;;;;;;-1.25;64.73;101468.28;5085979;28;20028;-73
2022/03/11 05:15:02;;;;;;;;;;;;;;;-1.27;64.83;101471.81;5051761;28;20456;-74
2022/03/11 05:17:27;;;;;;;13.68;7.03;;;;;;;-1.24;64.44;101454.25;5067713;28;20375;-73
2022/03/11 05:19:53;;;;;;;17.70;7.80;;;;;;;-1.27;64.34;101450.84;5084379;28;20093;-72
2022/03/11 05:22:18;;;;;;;19.13;8.15;;;;;;;-1.28;64.07;101430.81;5051202;28;20093;-72
2022/03/11 05:24:46;;;;;;;15.32;7.28;;;;;;;-1.22;63.81;101418.34;5067942;28;20392;-72
2022/03/11 05:27:12;;;;;;;15.30;7.93;;;;;;;-1.24;63.57;101401.84;5086115;28;20023;-72
2022/03/11 05:29:37;;;;;;;19.67;8.00;;;;;;;-1.29;63.61;101381.97;5084346;28;20040;-72
2022/03/11 05:32:03;;;;;;;19.63;8.10;;;;;;;-1.25;63.33;101395.75;5051069;28;20081;-72
2022/03/11 05:34:29;;;;;;;19.20;8.70;;;;;;;-1.30;63.43;101385.50;5067816;28;20044;-72
2022/03/11 05:36:54;;;;;;;19.92;7.68;;;;;;;-1.29;63.65;101409.91;5067495;28;20094;-72
2022/03/11 05:39:20;;;;;;;21.38;9.38;;;;;;;-1.35;63.44;101390.09;5067631;28;20401;-72
2022/03/11 05:41:48;;;;;;;18.17;7.50;;;;;;;-1.30;63.64;101403.84;5084602;28;20028;-72
2022/03/11 05:44:16;;;;;;;20.15;8.07;;;;;;;-1.27;63.13;101381.88;5067310;28;20474;-72
2022/03/11 05:46:42;;;;;;;15.50;7.78;;;;;;;-1.24;63.08;101368.66;5067746;28;20127;-72
2022/03/11 05:49:08;;;;;;;18.70;7.35;;;;;;;-1.29;62.99;101362.75;5085672;28;20042;-72
2022/03/11 05:51:33;;;;;;;19.33;7.65;;;;;;;-1.32;62.81;101355.88;5068568;28;20036;-72
2022/03/11 05:53:58;;;;;;;17.27;8.05;;;;;;;-1.28;62.77;101354.00;5074221;28;20120;-73
2022/03/11 05:56:24;;;;;;;16.97;8.03;;;;;;;-1.28;62.71;101335.66;5092843;28;20024;-72
2022/03/11 05:58:52;;;;;;;18.45;7.50;;;;;;;-1.32;62.76;101345.41;5092466;28;20501;-73
2022/03/11 06:01:19;;;;;;;18.95;7.95;;;;;;;-1.35;62.58;101321.16;5074648;28;20473;-72
2022/03/11 06:03:46;;;;;;;20.90;8.23;;;;;;;-1.33;62.82;101330.63;5074545;28;20040;-72
2022/03/11 06:06:12;;;;;;;15.07;7.32;;;;;;;-1.34;62.73;101325.44;5074295;28;20293;-72
2022/03/11 06:08:38;;;;;;;18.65;8.43;;;;;;;-1.34;62.33;101330.69;5074098;28;20023;-72
2022/03/11 06:11:03;;;;;;;20.63;8.27;;;;;;;-1.37;62.53;101329.06;5051791;28;20543;-72
2022/03/11 06:13:28;;;;;;;16.75;8.68;;;;;;;-1.44;62.96;101340.75;5053494;28;20036;-72
2022/03/11 06:15:54;;;;;;;15.98;7.05;;;;;;;-1.37;62.79;101368.34;5054078;28;20127;-72
2022/03/11 06:18:20;;;;;;;20.80;8.18;;;;;;;-1.36;62.98;101377.94;5054622;28;20016;-72
2022/03/11 06:20:46;;;;;;;19.67;8.85;;;;;;;-1.35;63.11;101379.63;5054189;28;20767;-72
2022/03/11 06:23:13;;;;;;;17.73;6.78;;;;;;;-1.30;63.02;101390.72;5054438;28;20747;-72
2022/03/11 06:25:38;;;;;;;19.05;8.13;;;;;;;-1.28;62.70;101370.56;5053964;28;20017;-72
2022/03/11 06:28:04;;;;;;;18.45;8.05;;;;;;;-1.25;62.51;101379.19;5072022;28;20052;-72
2022/03/11 06:30:30;;;;;;;15.20;7.43;;;;;;;-1.22;62.53;101379.03;5053735;28;20044;-72
2022/03/11 06:32:55;;;;;;;19.02;7.45;;;;;;;-1.11;62.34;101403.81;5054038;28;20119;-72
2022/03/11 06:35:20;;;;;;;23.48;8.07;;;;;;;-1.13;62.45;101376.00;5053965;28;20040;-73
2022/03/11 06:37:50;;;;;;;18.92;7.55;;;;;;;-1.11;61.97;101354.03;5071598;28;20039;-72
2022/03/11 06:40:16;;;;;;;19.65;7.97;;;;;;;-1.05;61.74;101352.91;5053922;28;20040;-72
2022/03/11 06:42:43;;;;;;;;;;;;;;;-0.96;61.57;101356.84;5072270;28;20020;-72
2022/03/11 06:45:10;;;;;;;17.23;7.25;;;;;;;-0.68;60.84;101369.47;5071880;28;19920;-72
2022/03/11 06:47:35;;;;;;;16.95;7.60;;;;;;;-0.29;59.98;101340.41;5054128;28;20041;-72
2022/03/11 06:50:01;;;;;;;16.95;7.60;;;;;;;0.08;59.11;101350.78;5071374;28;20033;-72
2022/03/11 06:52:26;;;;;;;12.80;7.72;;;;;;;0.08;58.33;101274.66;5053919;28;20039;-72
2022/03/11 06:54:52;;;;;;;15.95;7.78;;;;;;;-0.08;57.50;101175.72;5071841;28;20555;-72
2022/03/11 06:57:17;;;;;;;17.80;7.57;;;;;;;0.10;57.23;101199.28;5071763;28;20040;-72
2022/03/11 06:59:46;;;;;;;19.73;8.02;;;;;;;0.10;57.23;101215.03;5071614;28;20123;-71
2022/03/11 07:02:12;;;;;;;20.77;7.53;;;;;;;0.06;57.11;101174.13;5070575;28;20454;-72
2022/03/11 07:04:38;;;;;;;22.15;7.55;;;;;;;0.13;57.22;101209.59;5050975;28;20028;-73
2022/03/11 07:07:04;;;;;;;19.52;8.18;;;;;;;0.04;56.75;101162.84;5067680;28;20048;-72
2022/03/11 07:09:29;;;;;;;19.02;8.27;;;;;;;0.25;56.76;101219.44;5049954;28;20044;-72
2022/03/11 07:11:57;;;;;;;21.93;7.70;;;;;;;0.23;56.37;101174.00;5068506;28;20094;-72
2022/03/11 07:14:24;;;;;;;16.20;7.05;;;;;;;0.21;55.79;101115.47;5067954;28;20148;-72
2022/03/11 07:16:52;;;;;;;16.42;8.43;;;;;;;0.36;55.52;101133.00;5067944;28;20071;-72
2022/03/11 07:19:21;;;;;;;17.73;7.55;;;;;;;0.44;55.37;101139.59;5050237;28;20036;-71
2022/03/11 07:21:46;;;;;;;15.52;7.13;;;;;;;0.59;54.96;101136.09;5067099;28;20412;-71
2022/03/11 07:24:12;;;;;;;18.67;7.63;;;;;;;0.52;54.66;101082.22;5067809;28;20135;-72
2022/03/11 07:26:37;;;;;;;17.00;8.60;;;;;;;0.48;54.58;101062.31;5066999;28;20500;-71
2022/03/11 07:29:03;;;;;;;19.38;7.72;;;;;;;0.41;54.30;101028.50;5049883;28;20059;-72
2022/03/11 07:31:28;;;;;;;14.35;6.90;;;;;;;0.72;54.32;101129.19;5050301;28;20142;-71
2022/03/11 07:33:57;;;;;;;17.52;7.38;;;;;;;0.65;53.43;101043.75;5067901;28;20032;-72
2022/03/11 07:36:24;;;;;;;14.07;6.65;;;;;;;0.62;53.67;101050.03;5049024;28;20032;-72
2022/03/11 07:38:49;;;;;;;16.83;7.53;;;;;;;0.88;53.57;101102.84;5067399;28;20028;-72
2022/03/11 07:41:15;;;;;;;16.87;7.63;;;;;;;1.12;52.89;101087.34;5049816;28;20025;-72
2022/03/11 07:43:44;;;;;;;;;;;;;;;1.24;52.38;101051.56;5050002;28;20283;-71
2022/03/11 07:46:16;;;;;;;16.58;7.32;;;;;;;1.27;51.99;101039.09;5067637;28;19912;-72
2022/03/11 07:48:42;;;;;;;17.60;7.85;;;;;;;1.32;51.92;101032.72;5067747;28;20665;-72
2022/03/11 07:51:08;;;;;;;13.85;7.30;;;;;;;1.59;51.37;101033.59;5067293;28;20032;-71
2022/03/11 07:53:35;;;;;;;18.17;7.78;;;;;;;1.29;50.87;100922.41;5049738;28;20036;-72
2022/03/11 07:56:00;;;;;;;18.63;8.65;;;;;;;1.30;50.44;100924.94;5048655;28;20020;-72
2022/03/11 07:58:26;;;;;;;18.25;8.50;;;;;;;1.94;50.43;101019.09;5049486;28;20033;-72
2022/03/11 08:00:52;;;;;;;14.35;7.93;;;;;;;1.96;49.67;100954.00;5067255;28;20960;-73
2022/03/11 08:03:18;;;;;;;;;;;;;;;2.04;48.79;100877.97;5049883;28;20037;-72
2022/03/11 08:05:43;;;;;;;19.40;8.60;;;;;;;2.29;48.59;100914.00;5049095;28;19912;-71
2022/03/11 08:08:09;;;;;;;15.18;6.95;;;;;;;2.09;48.60;100858.28;5066666;28;20044;-72
2022/03/11 08:10:36;;;;;;;26.80;8.48;;;;;;;1.97;48.66;100867.00;5065031;28;20051;-72
2022/03/11 08:13:02;;;;;;;17.25;7.35;;;;;;;2.47;48.07;100911.91;5047990;28;20093;-72
2022/03/11 08:15:28;;;;;;;;;;;;;;;2.48;47.82;100900.41;5065498;28;20063;-72
2022/03/11 08:17:54;;;;;;;14.55;7.80;;;;;;;2.88;47.05;100906.38;5048846;28;19942;-72
2022/03/11 08:20:20;;;;;;;12.45;6.78;;;;;;;3.52;46.26;100915.88;5030809;28;20453;-72
2022/03/11 08:22:47;;;;;;;13.80;7.13;;;;;;;3.36;45.32;100771.81;5065735;28;20119;-72
2022/03/11 08:25:12;;;;;;;;;;;;;;;2.96;44.75;100666.66;5032237;28;20033;-72
2022/03/11 08:27:39;;;;;;;17.10;7.32;;;;;;;3.39;43.75;100683.66;5065393;28;20273;-72
2022/03/11 08:30:06;;;;;;;15.93;6.70;;;;;;;3.11;43.60;100616.31;5048491;28;20048;-72
2022/03/11 08:32:31;;;;;;;16.42;8.73;;;;;;;3.06;43.80;100602.66;5047891;28;20032;-72
2022/03/11 08:34:58;;;;;;;14.33;7.03;;;;;;;4.15;43.54;100837.16;5048975;28;20023;-71
2022/03/11 08:37:24;;;;;;;15.60;7.15;;;;;;;3.54;42.11;100539.09;5048793;28;20348;-73
2022/03/11 08:39:50;;;;;;;11.88;6.15;;;;;;;4.47;41.27;100676.00;5066141;28;20024;-72
2022/03/11 08:42:16;;;;;;;14.00;6.83;;;;;;;4.77;40.03;100613.63;5066551;28;20024;-72
2022/03/11 08:44:42;;;;;;;14.65;7.28;;;;;;;4.20;39.98;100480.91;5064957;28;20584;-72
2022/03/11 08:47:07;;;;;;;13.50;6.22;;;;;;;4.30;39.77;100473.03;5064651;28;20051;-72
2022/03/11 08:49:33;;;;;;;14.93;7.70;;;;;;;4.44;39.96;100546.72;5063710;28;20028;-72
2022/03/11 08:51:58;;;;;;;15.03;7.30;;;;;;;4.83;40.42;100610.50;5065945;28;20126;-72
2022/03/11 08:54:24;;;;;;;16.33;8.77;;;;;;;4.97;40.70;100671.00;5047502;28;20023;-72
2022/03/11 08:56:49;;;;;;;15.33;7.73;;;;;;;4.92;41.24;100690.91;5065653;28;20111;-72
2022/03/11 08:59:14;;;;;;;17.43;8.10;;;;;;;4.69;40.64;100531.47;5065087;28;20059;-72
2022/03/11 09:01:42;;;;;;;16.35;7.97;;;;;;;5.06;40.62;100633.19;5047748;28;20410;-72
2022/03/11 09:04:07;;;;;;;15.30;8.25;;;;;;;4.84;40.06;100490.47;5047771;28;20032;-72
2022/03/11 09:06:33;;;;;;;15.50;6.83;;;;;;;5.20;39.88;100587.03;5048107;28;20394;-72
2022/03/11 09:08:58;;;;;;;13.82;7.80;;;;;;;4.95;38.52;100381.09;5065713;28;20355;-72
2022/03/11 09:11:24;;;;;;;18.27;7.87;;;;;;;5.62;39.45;100639.91;5065915;28;20032;-72
2022/03/11 09:13:49;;;;;;;14.98;6.97;;;;;;;4.85;39.28;100420.75;5047602;28;20508;-71
2022/03/11 09:16:15;;;;;;;12.47;6.53;;;;;;;5.72;39.36;100671.72;5048095;28;20079;-72
2022/03/11 09:18:41;;;;;;;15.07;7.57;;;;;;;4.55;39.34;100356.31;5047571;28;20024;-72
2022/03/11 09:21:06;;;;;;;13.23;6.78;;;;;;;4.85;39.43;100465.72;5064454;28;20040;-72
2022/03/11 09:23:31;;;;;;;19.63;7.73;;;;;;;5.72;39.43;100683.16;5031019;28;20023;-72
2022/03/11 09:25:57;;;;;;;15.00;7.17;;;;;;;6.08;38.04;100542.28;5047881;28;20451;-72
2022/03/11 09:28:24;;;;;;;15.70;8.00;;;;;;;5.53;37.65;100340.63;5064894;28;20078;-72
2022/03/11 09:30:49;;;;;;;;;;;;;;;6.25;37.58;100541.63;5065062;28;20036;-72
2022/03/11 09:33:15;;;;;;;;;;;;;;;5.21;36.66;100180.28;5047748;28;20541;-72
2022/03/11 09:35:40;;;;;;;14.10;6.53;;;;;;;5.14;37.27;100309.69;5047732;28;19974;-72
2022/03/11 09:38:06;;;;;;;14.50;5.73;;;;;;;6.26;36.99;100508.81;5047530;28;20028;-72
2022/03/11 09:40:33;;;;;;;9.53;5.77;;;;;;;5.32;36.92;100254.25;5047312;28;20587;-72
2022/03/11 09:43:00;;;;;;;11.98;7.07;;;;;;;5.56;37.66;100377.41;5065033;28;20029;-72
2022/03/11 09:45:26;;;;;;;14.02;6.63;;;;;;;5.03;36.91;100201.31;5030532;28;20037;-72
2022/03/11 09:47:53;;;;;;;13.60;5.95;;;;;;;5.43;36.98;100325.59;5047729;28;20086;-71
2022/03/11 09:50:19;;;;;;;12.30;6.30;;;;;;;5.26;36.98;100287.38;5046955;28;20383;-72
2022/03/11 09:52:47;;;;;;;13.70;7.05;;;;;;;5.69;36.24;100256.16;5065697;28;20091;-72
2022/03/11 09:55:13;;;;;;;14.15;6.82;;;;;;;5.86;36.93;100385.22;5065250;28;20125;-71
2022/03/11 09:57:38;;;;;;;16.42;6.88;;;;;;;6.59;36.83;100542.97;5031083;28;20489;-72
2022/03/11 10:00:05;;;;;;;12.70;6.33;;;;;;;5.65;36.11;100260.88;5063919;28;20036;-71
2022/03/11 10:02:41;;;;;;;10.73;5.90;;;;;;;5.87;35.56;100253.56;5048053;28;20028;-71
2022/03/11 10:05:06;;;;;;;12.55;6.10;;;;;;;5.93;35.55;100253.84;5064325;28;20049;-72
2022/03/11 10:07:31;;;;;;;12.98;6.82;;;;;;;6.09;35.54;100294.84;5064150;28;20567;-73
2022/03/11 10:10:11;;;;;;;15.07;6.63;;;;;;;5.90;35.07;100168.53;5064672;28;20040;-72
2022/03/11 10:12:43;;;;;;;12.70;5.72;;;;;;;5.38;34.46;100007.47;5052169;28;20041;-73
2022/03/11 10:15:09;;;;;;;13.25;5.55;;;;;;;6.22;35.11;100308.59;5064398;28;20104;-73
2022/03/11 10:17:36;;;;;;;;;;;;;;;6.45;35.02;100340.88;5042111;28;20389;-72
2022/03/11 10:20:05;;;;;;;12.85;4.82;;;;;;;6.10;33.85;100064.09;5064943;28;20322;-72
2022/03/11 10:22:34;;;;;;;12.00;6.20;;;;;;;7.15;33.98;100356.31;5065176;28;20032;-72
2022/03/11 10:25:08;;;;;;;10.13;5.20;;;;;;;6.38;33.47;100122.38;5064482;28;20060;-72
2022/03/11 10:27:52;;;;;;;13.13;6.15;;;;;;;6.45;33.63;100171.16;5065375;28;20032;-72
2022/03/11 10:30:17;;;;;;;10.93;5.25;;;;;;;6.73;33.20;100150.72;5046359;28;20118;-72
2022/03/11 10:32:53;;;;;;;12.47;5.43;;;;;;;6.97;32.66;100183.75;5065123;28;20025;-72
2022/03/11 10:35:19;;;;;;;10.70;5.25;;;;;;;6.89;32.95;100189.00;5065066;28;20358;-72
2022/03/11 10:38:06;;;;;;;10.88;5.53;;;;;;;6.83;32.19;100056.94;5062979;28;20430;-73
2022/03/11 10:40:34;;;;;;;11.70;5.60;;;;;;;7.82;32.66;100344.31;5068483;28;20560;-72
2022/03/11 10:43:14;;;;;;;12.10;5.70;;;;;;;8.24;32.02;100293.06;5068925;28;20469;-72
2022/03/11 10:45:50;;;;;;;14.07;5.28;;;;;;;7.14;31.71;100002.41;5049793;28;20116;-72
2022/03/11 10:48:17;;;;;;;12.85;5.60;;;;;;;8.02;32.21;100294.41;5068841;28;20551;-73
2022/03/11 10:50:42;;;;;;;11.90;5.57;;;;;;;7.56;31.70;100130.88;5067350;28;20075;-71
2022/03/11 10:53:09;;;;;;;10.05;5.30;;;;;;;7.94;31.13;100150.84;5050811;28;20071;-73
2022/03/11 10:55:39;;;;;;;11.25;5.72;;;;;;;8.27;31.12;100188.19;5067397;28;20020;-73
2022/03/11 10:58:06;;;;;;;9.15;5.07;;;;;;;8.17;31.15;100160.88;5068463;28;20045;-71
2022/03/11 11:00:34;;;;;;;14.13;6.13;;;;;;;8.35;30.62;100107.59;5068107;28;20017;-73
2022/03/11 11:03:05;;;;;;;11.05;5.63;;;;;;;7.92;30.53;100011.13;5068503;28;20044;-73
2022/03/11 11:05:31;;;;;;;10.02;5.28;;;;;;;7.74;31.06;100011.25;5050690;28;20707;-72
2022/03/11 11:07:57;;;;;;;;;;;;;;;8.46;30.50;100136.56;5068677;28;20020;-71
2022/03/11 11:10:23;;;;;;;;;;;;;;;8.57;30.48;100122.94;5067331;28;19920;-73
2022/03/11 11:12:50;;;;;;;11.00;5.35;;;;;;;9.16;30.26;100176.03;5067408;28;19912;-72
2022/03/11 11:15:16;;;;;;;21.05;6.32;;;;;;;9.17;30.24;100217.66;5067915;28;20036;-73
2022/03/11 11:17:43;;;;;;;10.43;5.65;;;;;;;10.05;29.95;100309.38;5033625;28;20025;-72
2022/03/11 11:20:38;;;;;;;13.65;5.43;;;;;;;8.50;30.03;99950.84;5067866;28;20115;-72